createdAt,value
2017-03-28T00:00:00.162Z,8.65
2017-03-28T00:01:09.057Z,8.65
2017-03-28T00:02:17.944Z,8.65
2017-03-28T00:03:27.464Z,8.61
2017-03-28T00:04:36.733Z,8.72
2017-03-28T00:05:45.934Z,8.64
2017-03-28T00:06:55.136Z,8.62
2017-03-28T00:08:04.352Z,8.61
2017-03-28T00:09:13.243Z,8.68
2017-03-28T00:10:21.830Z,8.64
2017-03-28T00:11:30.394Z,8.52
2017-03-28T00:12:38.969Z,8.54
2017-03-28T00:13:48.169Z,8.53
2017-03-28T00:14:57.081Z,8.54
2017-03-28T00:16:06.245Z,8.57
2017-03-28T00:17:15.140Z,8.57
2017-03-28T00:18:24.031Z,8.64
2017-03-28T00:19:32.918Z,8.67
2017-03-28T00:20:42.125Z,8.65
2017-03-28T00:21:51.323Z,8.64
2017-03-28T00:22:59.894Z,8.65
2017-03-28T00:24:08.468Z,8.67
2017-03-28T00:25:17.038Z,8.68
2017-03-28T00:26:25.949Z,8.71
2017-03-28T00:27:34.837Z,8.65
2017-03-28T00:28:43.409Z,8.68
2017-03-28T00:29:51.980Z,8.61
2017-03-28T00:31:01.184Z,8.62
2017-03-28T00:32:10.070Z,8.68
2017-03-28T00:33:18.955Z,8.64
2017-03-28T00:34:28.168Z,8.62
2017-03-28T00:35:37.374Z,8.61
2017-03-28T00:36:46.257Z,8.62
2017-03-28T00:37:55.465Z,8.64
2017-03-28T00:39:04.353Z,8.61
2017-03-28T00:40:12.928Z,8.58
2017-03-28T00:41:21.505Z,8.65
2017-03-28T00:42:30.077Z,8.54
2017-03-28T00:43:38.650Z,8.69
2017-03-28T00:44:47.545Z,8.62
2017-03-28T00:45:56.124Z,8.6
2017-03-28T00:47:05.007Z,8.64
2017-03-28T00:48:14.531Z,8.57
2017-03-28T00:49:23.110Z,8.5
2017-03-28T00:50:32.310Z,8.54
2017-03-28T00:51:40.880Z,8.43
2017-03-28T00:52:49.452Z,8.5
2017-03-28T00:53:58.028Z,8.52
2017-03-28T00:55:07.230Z,8.58
2017-03-28T00:56:16.117Z,8.4
2017-03-28T00:57:25.318Z,8.42
2017-03-28T00:58:34.515Z,8.36
2017-03-28T00:59:43.405Z,8.34
2017-03-28T01:00:51.973Z,8.39
2017-03-28T01:02:00.868Z,8.39
2017-03-28T01:03:09.439Z,8.35
2017-03-28T01:04:18.335Z,8.36
2017-03-28T01:05:27.531Z,8.35
2017-03-28T01:06:36.782Z,8.36
2017-03-28T01:07:46.232Z,8.36
2017-03-28T01:08:55.459Z,8.35
2017-03-28T01:10:04.033Z,8.28
2017-03-28T01:11:12.918Z,8.32
2017-03-28T01:12:22.438Z,8.31
2017-03-28T01:13:31.647Z,8.24
2017-03-28T01:14:40.537Z,8.22
2017-03-28T01:15:49.109Z,8.29
2017-03-28T01:16:58.319Z,8.22
2017-03-28T01:18:08.371Z,8.22
2017-03-28T01:19:17.267Z,8.25
2017-03-28T01:20:26.465Z,8.25
2017-03-28T01:21:35.033Z,8.11
2017-03-28T01:22:44.235Z,7.99
2017-03-28T01:23:53.129Z,7.95
2017-03-28T01:25:02.345Z,7.93
2017-03-28T01:26:11.233Z,7.92
2017-03-28T01:27:20.116Z,7.82
2017-03-28T01:28:28.996Z,7.83
2017-03-28T01:29:37.888Z,7.85
2017-03-28T01:30:46.785Z,7.77
2017-03-28T01:31:55.356Z,7.83
2017-03-28T01:33:03.954Z,7.85
2017-03-28T01:34:12.544Z,7.88
2017-03-28T01:35:21.752Z,7.83
2017-03-28T01:36:30.320Z,7.8
2017-03-28T01:37:39.524Z,7.83
2017-03-28T01:38:48.730Z,7.89
2017-03-28T01:39:57.619Z,7.85
2017-03-28T01:41:06.196Z,7.86
2017-03-28T01:42:15.084Z,7.8
2017-03-28T01:43:24.289Z,7.8
2017-03-28T01:44:33.175Z,7.85
2017-03-28T01:45:41.745Z,7.78
2017-03-28T01:46:50.940Z,7.77
2017-03-28T01:47:59.834Z,7.74
2017-03-28T01:49:08.730Z,7.82
2017-03-28T01:50:17.316Z,7.73
2017-03-28T01:51:26.198Z,7.68
2017-03-28T01:52:34.771Z,7.74
2017-03-28T01:53:43.657Z,7.67
2017-03-28T01:54:52.227Z,7.67
2017-03-28T01:56:02.073Z,7.73
2017-03-28T01:57:10.955Z,7.73
2017-03-28T01:58:19.843Z,7.58
2017-03-28T01:59:28.735Z,7.68
2017-03-28T02:00:37.309Z,7.68
2017-03-28T02:01:46.222Z,7.64
2017-03-28T02:02:54.810Z,7.61
2017-03-28T02:04:03.714Z,7.64
2017-03-28T02:05:12.605Z,7.64
2017-03-28T02:06:21.801Z,7.73
2017-03-28T02:07:30.367Z,7.56
2017-03-28T02:08:39.259Z,7.58
2017-03-28T02:09:48.146Z,7.54
2017-03-28T02:10:56.717Z,7.61
2017-03-28T02:12:05.284Z,7.55
2017-03-28T02:13:13.855Z,7.54
2017-03-28T02:14:22.747Z,7.54
2017-03-28T02:15:31.634Z,7.54
2017-03-28T02:16:40.518Z,7.54
2017-03-28T02:17:49.782Z,7.58
2017-03-28T02:18:59.324Z,7.58
2017-03-28T02:20:08.850Z,7.51
2017-03-28T02:21:17.854Z,7.47
2017-03-28T02:22:27.020Z,7.49
2017-03-28T02:23:35.963Z,7.52
2017-03-28T02:24:44.546Z,7.55
2017-03-28T02:25:53.114Z,7.59
2017-03-28T02:27:02.044Z,7.54
2017-03-28T02:28:11.258Z,7.55
2017-03-28T02:29:20.539Z,7.68
2017-03-28T02:30:29.485Z,7.54
2017-03-28T02:31:40.014Z,7.64
2017-03-28T02:32:50.264Z,7.68
2017-03-28T02:33:59.974Z,7.51
2017-03-28T02:35:10.443Z,7.51
2017-03-28T02:36:21.573Z,7.55
2017-03-28T02:37:31.670Z,7.51
2017-03-28T02:38:40.885Z,7.64
2017-03-28T02:39:49.455Z,7.54
2017-03-28T02:40:58.661Z,7.52
2017-03-28T02:42:07.236Z,7.55
2017-03-28T02:43:16.127Z,7.54
2017-03-28T02:44:25.022Z,7.59
2017-03-28T02:45:33.589Z,7.58
2017-03-28T02:46:42.503Z,7.51
2017-03-28T02:47:51.077Z,7.51
2017-03-28T02:49:00.287Z,7.56
2017-03-28T02:50:09.191Z,7.61
2017-03-28T02:51:18.077Z,7.55
2017-03-28T02:52:26.674Z,7.56
2017-03-28T02:53:35.328Z,7.44
2017-03-28T02:54:43.915Z,7.49
2017-03-28T02:55:52.807Z,7.48
2017-03-28T02:57:01.695Z,7.45
2017-03-28T02:58:10.583Z,7.45
2017-03-28T02:59:19.151Z,7.4
2017-03-28T03:00:27.721Z,7.48
2017-03-28T03:01:36.544Z,7.36
2017-03-28T03:02:45.113Z,7.37
2017-03-28T03:03:54.014Z,7.47
2017-03-28T03:05:02.903Z,7.44
2017-03-28T03:06:12.419Z,7.45
2017-03-28T03:07:21.934Z,7.47
2017-03-28T03:08:30.824Z,7.39
2017-03-28T03:09:39.393Z,7.41
2017-03-28T03:10:48.289Z,7.49
2017-03-28T03:11:56.856Z,7.44
2017-03-28T03:13:05.742Z,7.41
2017-03-28T03:14:14.630Z,7.41
2017-03-28T03:15:23.516Z,7.4
2017-03-28T03:16:32.398Z,7.4
2017-03-28T03:17:41.219Z,7.4
2017-03-28T03:18:50.106Z,7.36
2017-03-28T03:19:59.953Z,7.29
2017-03-28T03:21:08.840Z,7.34
2017-03-28T03:22:17.724Z,7.29
2017-03-28T03:23:26.733Z,7.27
2017-03-28T03:24:35.740Z,7.29
2017-03-28T03:25:44.731Z,7.26
2017-03-28T03:26:54.329Z,7.23
2017-03-28T03:28:02.905Z,7.33
2017-03-28T03:29:12.606Z,7.3
2017-03-28T03:30:21.873Z,7.31
2017-03-28T03:31:30.468Z,7.27
2017-03-28T03:32:39.211Z,7.33
2017-03-28T03:33:48.361Z,7.26
2017-03-28T03:34:56.971Z,7.19
2017-03-28T03:36:05.949Z,7.23
2017-03-28T03:37:14.599Z,7.26
2017-03-28T03:38:23.199Z,7.23
2017-03-28T03:39:31.915Z,7.33
2017-03-28T03:40:40.490Z,7.23
2017-03-28T03:41:49.476Z,7.26
2017-03-28T03:42:58.442Z,7.19
2017-03-28T03:44:07.037Z,7.16
2017-03-28T03:45:16.101Z,7.22
2017-03-28T03:46:25.025Z,7.19
2017-03-28T03:47:33.994Z,7.12
2017-03-28T03:48:43.015Z,7.11
2017-03-28T03:49:51.908Z,7.12
2017-03-28T03:51:00.804Z,7.03
2017-03-28T03:52:10.122Z,7.01
2017-03-28T03:53:19.066Z,7.11
2017-03-28T03:54:28.020Z,6.97
2017-03-28T03:55:36.659Z,7.03
2017-03-28T03:56:45.346Z,7.12
2017-03-28T03:57:54.622Z,7.03
2017-03-28T03:59:03.217Z,7.01
2017-03-28T04:00:11.952Z,7.01
2017-03-28T04:01:20.637Z,7
2017-03-28T04:02:29.280Z,7.11
2017-03-28T04:03:38.501Z,7
2017-03-28T04:04:47.932Z,7.05
2017-03-28T04:05:56.951Z,7
2017-03-28T04:07:05.868Z,7.13
2017-03-28T04:08:14.753Z,7
2017-03-28T04:09:23.332Z,7.03
2017-03-28T04:10:32.221Z,7.09
2017-03-28T04:11:41.103Z,7.04
2017-03-28T04:12:50.007Z,6.97
2017-03-28T04:13:59.214Z,7.05
2017-03-28T04:15:07.793Z,7.01
2017-03-28T04:16:16.361Z,6.97
2017-03-28T04:17:24.928Z,7
2017-03-28T04:18:33.819Z,7.09
2017-03-28T04:19:42.703Z,6.97
2017-03-28T04:20:51.606Z,7
2017-03-28T04:22:00.811Z,7
2017-03-28T04:23:09.697Z,6.97
2017-03-28T04:24:18.904Z,7.01
2017-03-28T04:25:28.104Z,6.97
2017-03-28T04:26:37.311Z,7.01
2017-03-28T04:27:46.195Z,7
2017-03-28T04:28:55.404Z,6.9
2017-03-28T04:30:05.247Z,6.85
2017-03-28T04:31:14.451Z,6.85
2017-03-28T04:32:23.334Z,6.88
2017-03-28T04:33:31.913Z,6.95
2017-03-28T04:34:40.823Z,6.86
2017-03-28T04:35:50.025Z,6.86
2017-03-28T04:36:58.914Z,6.82
2017-03-28T04:38:07.486Z,6.91
2017-03-28T04:39:16.058Z,6.91
2017-03-28T04:40:24.943Z,6.86
2017-03-28T04:41:33.831Z,6.86
2017-03-28T04:42:42.722Z,6.82
2017-03-28T04:43:51.607Z,6.8
2017-03-28T04:45:00.494Z,6.78
2017-03-28T04:46:09.379Z,6.8
2017-03-28T04:47:18.270Z,6.82
2017-03-28T04:48:27.477Z,6.76
2017-03-28T04:49:36.679Z,6.83
2017-03-28T04:50:45.563Z,6.79
2017-03-28T04:51:54.763Z,6.75
2017-03-28T04:53:03.651Z,6.86
2017-03-28T04:54:12.227Z,6.86
2017-03-28T04:55:21.436Z,6.78
2017-03-28T04:56:30.321Z,6.79
2017-03-28T04:57:38.909Z,6.75
2017-03-28T04:58:47.804Z,6.75
2017-03-28T04:59:57.008Z,6.76
2017-03-28T05:01:05.616Z,6.76
2017-03-28T05:02:14.243Z,6.76
2017-03-28T05:03:22.820Z,6.72
2017-03-28T05:04:31.402Z,6.79
2017-03-28T05:05:40.605Z,6.73
2017-03-28T05:06:49.179Z,6.73
2017-03-28T05:07:58.069Z,6.75
2017-03-28T05:09:07.272Z,6.86
2017-03-28T05:10:16.564Z,6.73
2017-03-28T05:11:25.480Z,6.72
2017-03-28T05:12:34.201Z,6.7
2017-03-28T05:13:43.094Z,6.73
2017-03-28T05:14:51.991Z,6.79
2017-03-28T05:16:01.214Z,6.75
2017-03-28T05:17:10.103Z,6.76
2017-03-28T05:18:18.986Z,6.72
2017-03-28T05:19:27.883Z,6.72
2017-03-28T05:20:37.091Z,6.76
2017-03-28T05:21:45.659Z,6.76
2017-03-28T05:22:54.610Z,6.73
2017-03-28T05:24:03.811Z,6.82
2017-03-28T05:25:12.384Z,6.72
2017-03-28T05:26:20.989Z,6.73
2017-03-28T05:27:29.567Z,6.82
2017-03-28T05:28:38.596Z,6.7
2017-03-28T05:29:47.172Z,6.73
2017-03-28T05:30:56.107Z,6.78
2017-03-28T05:32:05.086Z,6.76
2017-03-28T05:33:13.990Z,6.7
2017-03-28T05:34:22.925Z,6.78
2017-03-28T05:35:31.625Z,6.79
2017-03-28T05:36:40.553Z,6.83
2017-03-28T05:37:49.123Z,6.83
2017-03-28T05:38:57.705Z,6.83
2017-03-28T05:40:07.374Z,6.83
2017-03-28T05:41:16.303Z,6.94
2017-03-28T05:42:25.502Z,6.82
2017-03-28T05:43:35.030Z,6.82
2017-03-28T05:44:43.603Z,6.83
2017-03-28T05:45:52.519Z,6.98
2017-03-28T05:47:01.833Z,7.01
2017-03-28T05:48:11.076Z,7.03
2017-03-28T05:49:19.969Z,7.03
2017-03-28T05:50:28.934Z,7.04
2017-03-28T05:51:38.137Z,7.01
2017-03-28T05:52:46.709Z,7.15
2017-03-28T05:53:55.653Z,7
2017-03-28T05:55:04.958Z,7.18
2017-03-28T05:56:13.858Z,7.04
2017-03-28T05:57:23.060Z,7.15
2017-03-28T05:58:31.946Z,7.22
2017-03-28T05:59:41.155Z,7.16
2017-03-28T06:00:50.042Z,7.23
2017-03-28T06:01:58.926Z,7.16
2017-03-28T06:03:07.813Z,7.21
2017-03-28T06:04:16.386Z,7.22
2017-03-28T06:05:25.589Z,7.23
2017-03-28T06:06:34.474Z,7.26
2017-03-28T06:07:43.682Z,7.23
2017-03-28T06:08:52.272Z,7.31
2017-03-28T06:10:00.846Z,7.4
2017-03-28T06:11:10.364Z,7.37
2017-03-28T06:12:18.937Z,7.45
2017-03-28T06:13:27.512Z,7.48
2017-03-28T06:14:36.085Z,7.44
2017-03-28T06:15:45.287Z,7.52
2017-03-28T06:16:54.484Z,7.52
2017-03-28T06:18:03.322Z,7.52
2017-03-28T06:19:16.560Z,7.61
2017-03-28T06:20:25.773Z,7.64
2017-03-28T06:21:34.359Z,7.63
2017-03-28T06:22:43.246Z,7.7
2017-03-28T06:23:52.143Z,7.71
2017-03-28T06:25:01.049Z,7.75
2017-03-28T06:26:09.713Z,7.73
2017-03-28T06:27:18.914Z,7.78
2017-03-28T06:28:27.494Z,7.78
2017-03-28T06:29:36.693Z,7.89
2017-03-28T06:30:45.274Z,7.85
2017-03-28T06:31:53.844Z,7.92
2017-03-28T06:33:03.055Z,7.93
2017-03-28T06:34:11.940Z,7.93
2017-03-28T06:35:21.143Z,8.01
2017-03-28T06:36:30.030Z,8.01
2017-03-28T06:37:39.236Z,8.11
2017-03-28T06:38:48.438Z,8.19
2017-03-28T06:39:57.012Z,8.16
2017-03-28T06:41:06.533Z,8.24
2017-03-28T06:42:15.104Z,8.34
2017-03-28T06:43:24.305Z,8.35
2017-03-28T06:44:33.196Z,8.34
2017-03-28T06:45:41.771Z,8.42
2017-03-28T06:46:50.344Z,8.5
2017-03-28T06:47:59.230Z,8.42
2017-03-28T06:49:07.797Z,8.44
2017-03-28T06:50:16.373Z,8.42
2017-03-28T06:51:24.939Z,8.49
2017-03-28T06:52:33.826Z,8.54
2017-03-28T06:53:43.030Z,8.61
2017-03-28T06:54:52.545Z,8.64
2017-03-28T06:56:01.130Z,8.65
2017-03-28T06:57:09.738Z,8.69
2017-03-28T06:58:19.659Z,8.74
2017-03-28T06:59:28.568Z,8.82
2017-03-28T07:00:37.458Z,8.8
2017-03-28T07:01:46.898Z,8.86
2017-03-28T07:02:56.847Z,8.85
2017-03-28T07:04:06.839Z,8.8
2017-03-28T07:05:16.046Z,8.89
2017-03-28T07:06:25.451Z,8.97
2017-03-28T07:07:34.554Z,9.11
2017-03-28T07:08:43.925Z,9.03
2017-03-28T07:09:53.489Z,9.03
2017-03-28T07:11:03.037Z,9.12
2017-03-28T07:12:12.026Z,9.16
2017-03-28T07:13:21.483Z,9.24
2017-03-28T07:14:34.351Z,9.23
2017-03-28T07:15:43.724Z,9.29
2017-03-28T07:16:52.656Z,9.32
2017-03-28T07:18:02.018Z,9.3
2017-03-28T07:19:12.318Z,9.32
2017-03-28T07:20:21.812Z,9.42
2017-03-28T07:21:30.882Z,9.38
2017-03-28T07:22:39.915Z,9.52
2017-03-28T07:23:49.168Z,9.56
2017-03-28T07:24:58.670Z,9.6
2017-03-28T07:26:07.757Z,9.64
2017-03-28T07:27:16.739Z,9.72
2017-03-28T07:28:25.639Z,9.64
2017-03-28T07:29:34.603Z,9.7
2017-03-28T07:30:43.498Z,9.75
2017-03-28T07:31:52.607Z,9.88
2017-03-28T07:33:01.502Z,9.8
2017-03-28T07:34:10.390Z,9.85
2017-03-28T07:35:19.230Z,9.92
2017-03-28T07:36:27.823Z,9.95
2017-03-28T07:37:37.035Z,9.96
2017-03-28T07:38:45.994Z,9.93
2017-03-28T07:39:55.148Z,10.14
2017-03-28T07:41:03.732Z,10.14
2017-03-28T07:42:12.967Z,10.26
2017-03-28T07:43:22.074Z,10.28
2017-03-28T07:44:31.413Z,10.35
2017-03-28T07:45:40.720Z,10.33
2017-03-28T07:46:49.296Z,10.38
2017-03-28T07:47:58.501Z,10.44
2017-03-28T07:49:07.364Z,10.42
2017-03-28T07:50:16.267Z,10.47
2017-03-28T07:51:25.470Z,10.57
2017-03-28T07:52:34.043Z,10.69
2017-03-28T07:53:42.626Z,10.66
2017-03-28T07:54:51.559Z,10.77
2017-03-28T07:56:00.152Z,10.76
2017-03-28T07:57:09.069Z,10.77
2017-03-28T07:58:18.218Z,10.88
2017-03-28T07:59:28.252Z,10.8
2017-03-28T08:00:37.494Z,10.94
2017-03-28T08:01:46.514Z,10.94
2017-03-28T08:02:55.974Z,10.97
2017-03-28T08:04:04.855Z,11.03
2017-03-28T08:05:13.780Z,11.06
2017-03-28T08:06:22.908Z,11.13
2017-03-28T08:07:32.575Z,11.13
2017-03-28T08:08:41.900Z,11.15
2017-03-28T08:09:51.358Z,11.26
2017-03-28T08:11:00.810Z,11.26
2017-03-28T08:12:10.592Z,11.35
2017-03-28T08:13:20.147Z,11.34
2017-03-28T08:14:29.684Z,11.38
2017-03-28T08:15:39.139Z,11.39
2017-03-28T08:16:48.301Z,11.45
2017-03-28T08:17:57.476Z,11.46
2017-03-28T08:19:06.719Z,11.49
2017-03-28T08:20:16.034Z,11.46
2017-03-28T08:21:24.971Z,11.61
2017-03-28T08:22:34.222Z,11.61
2017-03-28T08:23:43.689Z,11.61
2017-03-28T08:24:52.876Z,11.68
2017-03-28T08:26:01.646Z,11.76
2017-03-28T08:27:10.855Z,11.82
2017-03-28T08:28:19.750Z,11.84
2017-03-28T08:29:28.638Z,11.86
2017-03-28T08:30:37.223Z,11.84
2017-03-28T08:31:46.123Z,12.03
2017-03-28T08:32:55.329Z,12.04
2017-03-28T08:34:03.930Z,11.97
2017-03-28T08:35:12.828Z,11.98
2017-03-28T08:36:22.029Z,12.18
2017-03-28T08:37:31.558Z,12.2
2017-03-28T08:38:41.564Z,12.11
2017-03-28T08:39:50.771Z,12.19
2017-03-28T08:40:59.991Z,12.22
2017-03-28T08:42:08.560Z,12.37
2017-03-28T08:43:17.457Z,12.33
2017-03-28T08:44:26.604Z,12.31
2017-03-28T08:45:36.129Z,12.4
2017-03-28T08:46:45.335Z,12.44
2017-03-28T08:47:54.401Z,12.53
2017-03-28T08:49:03.965Z,12.55
2017-03-28T08:50:13.180Z,12.55
2017-03-28T08:51:22.782Z,12.62
2017-03-28T08:52:31.690Z,12.76
2017-03-28T08:53:42.335Z,12.69
2017-03-28T08:54:53.445Z,12.69
2017-03-28T08:56:02.362Z,12.7
2017-03-28T08:57:11.602Z,12.73
2017-03-28T08:58:20.724Z,12.8
2017-03-28T08:59:29.877Z,12.81
2017-03-28T09:00:39.463Z,12.84
2017-03-28T09:01:49.118Z,12.95
2017-03-28T09:02:59.130Z,13.01
2017-03-28T09:04:08.707Z,12.95
2017-03-28T09:05:17.708Z,13.09
2017-03-28T09:06:26.601Z,13.06
2017-03-28T09:07:35.495Z,13.07
2017-03-28T09:08:45.080Z,13.13
2017-03-28T09:09:54.448Z,13.16
2017-03-28T09:11:03.090Z,13.16
2017-03-28T09:12:11.982Z,13.16
2017-03-28T09:13:20.899Z,13.21
2017-03-28T09:14:29.793Z,13.35
2017-03-28T09:15:39.097Z,13.32
2017-03-28T09:16:48.841Z,13.37
2017-03-28T09:17:57.825Z,13.28
2017-03-28T09:19:07.065Z,13.44
2017-03-28T09:20:16.329Z,13.48
2017-03-28T09:21:26.576Z,13.51
2017-03-28T09:22:35.998Z,13.63
2017-03-28T09:23:44.947Z,13.63
2017-03-28T09:24:54.167Z,13.65
2017-03-28T09:26:03.450Z,13.7
2017-03-28T09:27:13.284Z,13.7
2017-03-28T09:28:22.554Z,13.81
2017-03-28T09:29:31.673Z,13.87
2017-03-28T09:30:40.641Z,13.84
2017-03-28T09:31:50.378Z,13.88
2017-03-28T09:33:00.440Z,13.88
2017-03-28T09:34:10.594Z,13.94
2017-03-28T09:35:20.700Z,13.97
2017-03-28T09:36:30.178Z,14.02
2017-03-28T09:37:39.084Z,14.05
2017-03-28T09:38:47.986Z,14.12
2017-03-28T09:39:58.078Z,14.12
2017-03-28T09:41:07.306Z,14.19
2017-03-28T09:42:15.889Z,14.24
2017-03-28T09:43:24.461Z,14.23
2017-03-28T09:44:33.706Z,14.34
2017-03-28T09:45:42.283Z,14.33
2017-03-28T09:46:51.175Z,14.36
2017-03-28T09:47:59.747Z,14.49
2017-03-28T09:49:08.323Z,14.52
2017-03-28T09:50:16.900Z,14.6
2017-03-28T09:51:25.474Z,14.56
2017-03-28T09:52:34.389Z,14.67
2017-03-28T09:53:43.478Z,14.66
2017-03-28T09:54:53.252Z,14.7
2017-03-28T09:56:02.434Z,14.69
2017-03-28T09:57:11.350Z,14.69
2017-03-28T09:58:20.241Z,14.86
2017-03-28T09:59:29.643Z,14.89
2017-03-28T10:00:38.699Z,14.98
2017-03-28T10:01:47.598Z,14.94
2017-03-28T10:02:56.490Z,14.98
2017-03-28T10:04:05.072Z,15.05
2017-03-28T10:05:13.652Z,15.1
2017-03-28T10:06:22.224Z,15.15
2017-03-28T10:07:30.803Z,15.18
2017-03-28T10:08:40.849Z,15.2
2017-03-28T10:09:50.370Z,15.3
2017-03-28T10:10:59.292Z,15.27
2017-03-28T10:12:08.849Z,15.37
2017-03-28T10:13:17.449Z,15.41
2017-03-28T10:14:26.021Z,15.38
2017-03-28T10:15:34.598Z,15.44
2017-03-28T10:16:43.487Z,15.51
2017-03-28T10:17:52.062Z,15.53
2017-03-28T10:19:01.582Z,15.67
2017-03-28T10:20:10.720Z,15.71
2017-03-28T10:21:19.614Z,15.68
2017-03-28T10:22:29.285Z,15.74
2017-03-28T10:23:38.544Z,15.84
2017-03-28T10:24:47.432Z,15.68
2017-03-28T10:25:56.642Z,15.75
2017-03-28T10:27:05.859Z,15.83
2017-03-28T10:28:14.759Z,15.84
2017-03-28T10:29:23.331Z,15.95
2017-03-28T10:30:32.219Z,15.93
2017-03-28T10:31:41.439Z,16.07
2017-03-28T10:32:50.334Z,16.08
2017-03-28T10:33:59.248Z,16.13
2017-03-28T10:35:08.304Z,16.18
2017-03-28T10:36:16.917Z,16.25
2017-03-28T10:37:26.122Z,16.22
2017-03-28T10:38:34.700Z,16.27
2017-03-28T10:39:43.597Z,16.21
2017-03-28T10:40:52.178Z,16.29
2017-03-28T10:42:00.957Z,16.32
2017-03-28T10:43:09.859Z,16.32
2017-03-28T10:44:18.751Z,16.49
2017-03-28T10:45:27.333Z,16.44
2017-03-28T10:46:36.279Z,16.47
2017-03-28T10:47:45.813Z,16.45
2017-03-28T10:48:54.399Z,16.52
2017-03-28T10:50:03.614Z,16.65
2017-03-28T10:51:12.241Z,16.59
2017-03-28T10:52:20.861Z,16.63
2017-03-28T10:53:31.053Z,16.73
2017-03-28T10:54:43.232Z,16.77
2017-03-28T10:55:54.034Z,16.8
2017-03-28T10:57:03.250Z,16.85
2017-03-28T10:58:12.146Z,16.87
2017-03-28T10:59:20.727Z,16.85
2017-03-28T11:00:30.268Z,16.95
2017-03-28T11:01:38.843Z,16.95
2017-03-28T11:02:48.054Z,16.9
2017-03-28T11:03:57.610Z,17.03
2017-03-28T11:05:06.554Z,17.03
2017-03-28T11:06:15.128Z,16.99
2017-03-28T11:07:24.338Z,16.99
2017-03-28T11:08:33.236Z,17.03
2017-03-28T11:09:42.129Z,17.13
2017-03-28T11:10:51.653Z,17.17
2017-03-28T11:12:00.544Z,17.2
2017-03-28T11:13:09.441Z,17.22
2017-03-28T11:14:18.072Z,17.31
2017-03-28T11:15:26.994Z,17.28
2017-03-28T11:16:36.212Z,17.27
2017-03-28T11:17:44.792Z,17.36
2017-03-28T11:18:53.694Z,17.42
2017-03-28T11:20:02.635Z,17.38
2017-03-28T11:21:11.267Z,17.45
2017-03-28T11:22:20.839Z,17.36
2017-03-28T11:23:29.592Z,17.52
2017-03-28T11:24:38.934Z,17.58
2017-03-28T11:25:47.927Z,17.73
2017-03-28T11:26:57.173Z,17.8
2017-03-28T11:28:06.112Z,17.79
2017-03-28T11:29:15.117Z,17.81
2017-03-28T11:30:24.049Z,17.79
2017-03-28T11:31:33.712Z,17.83
2017-03-28T11:32:42.645Z,17.92
2017-03-28T11:33:51.578Z,17.99
2017-03-28T11:35:00.512Z,17.95
2017-03-28T11:36:09.476Z,17.99
2017-03-28T11:37:18.398Z,18.03
2017-03-28T11:38:27.712Z,18.13
2017-03-28T11:39:36.997Z,18.13
2017-03-28T11:40:45.606Z,18.11
2017-03-28T11:41:54.580Z,18.16
2017-03-28T11:43:03.825Z,18.29
2017-03-28T11:44:12.466Z,18.32
2017-03-28T11:45:22.325Z,18.27
2017-03-28T11:46:31.632Z,18.36
2017-03-28T11:47:40.854Z,18.42
2017-03-28T11:48:49.486Z,18.38
2017-03-28T11:49:58.399Z,18.44
2017-03-28T11:51:07.365Z,18.47
2017-03-28T11:52:16.592Z,18.49
2017-03-28T11:53:25.801Z,18.53
2017-03-28T11:54:34.386Z,18.5
2017-03-28T11:55:43.593Z,18.53
2017-03-28T11:56:52.488Z,18.6
2017-03-28T11:58:01.951Z,18.54
2017-03-28T11:59:11.415Z,18.61
2017-03-28T12:00:20.324Z,18.66
2017-03-28T12:01:28.900Z,18.69
2017-03-28T12:02:37.478Z,18.72
2017-03-28T12:03:46.058Z,18.66
2017-03-28T12:04:55.592Z,18.68
2017-03-28T12:06:04.623Z,18.84
2017-03-28T12:07:13.888Z,18.66
2017-03-28T12:08:23.102Z,18.72
2017-03-28T12:09:31.678Z,18.81
2017-03-28T12:10:40.571Z,18.84
2017-03-28T12:11:49.468Z,18.82
2017-03-28T12:12:58.678Z,18.9
2017-03-28T12:14:07.259Z,18.94
2017-03-28T12:15:15.835Z,18.87
2017-03-28T12:16:24.736Z,18.9
2017-03-28T12:17:33.954Z,18.96
2017-03-28T12:18:42.528Z,18.91
2017-03-28T12:19:51.103Z,18.9
2017-03-28T12:21:00.310Z,18.96
2017-03-28T12:22:09.466Z,18.93
2017-03-28T12:23:18.736Z,19.02
2017-03-28T12:24:28.876Z,19.02
2017-03-28T12:25:37.978Z,19.07
2017-03-28T12:26:46.872Z,19.16
2017-03-28T12:27:55.767Z,19.23
2017-03-28T12:29:04.365Z,19.16
2017-03-28T12:30:12.942Z,19.16
2017-03-28T12:31:21.519Z,19.23
2017-03-28T12:32:30.438Z,19.31
2017-03-28T12:33:39.336Z,19.31
2017-03-28T12:34:48.236Z,19.28
2017-03-28T12:35:57.398Z,19.27
2017-03-28T12:37:05.978Z,19.3
2017-03-28T12:38:15.197Z,19.25
2017-03-28T12:39:24.421Z,19.34
2017-03-28T12:40:33.322Z,19.28
2017-03-28T12:41:41.900Z,19.25
2017-03-28T12:42:51.116Z,19.35
2017-03-28T12:44:00.013Z,19.38
2017-03-28T12:45:09.247Z,19.31
2017-03-28T12:46:18.154Z,19.34
2017-03-28T12:47:26.728Z,19.45
2017-03-28T12:48:35.308Z,19.43
2017-03-28T12:49:44.206Z,19.46
2017-03-28T12:50:53.101Z,19.49
2017-03-28T12:52:02.000Z,19.4
2017-03-28T12:53:11.245Z,19.43
2017-03-28T12:54:19.843Z,19.43
2017-03-28T12:55:28.829Z,19.52
2017-03-28T12:56:37.418Z,19.56
2017-03-28T12:57:46.948Z,19.53
2017-03-28T12:59:02.030Z,19.57
2017-03-28T13:00:13.751Z,19.55
2017-03-28T13:01:24.140Z,19.64
2017-03-28T13:02:33.777Z,19.63
2017-03-28T13:03:45.280Z,19.65
2017-03-28T13:04:54.869Z,19.57
2017-03-28T13:06:05.586Z,19.7
2017-03-28T13:07:15.390Z,19.7
2017-03-28T13:08:25.047Z,19.72
2017-03-28T13:09:37.235Z,19.67
2017-03-28T13:10:48.672Z,19.71
2017-03-28T13:12:00.022Z,19.75
2017-03-28T13:13:11.014Z,19.72
2017-03-28T13:14:21.490Z,19.79
2017-03-28T13:15:30.538Z,19.74
2017-03-28T13:16:39.436Z,19.74
2017-03-28T13:17:48.922Z,19.75
2017-03-28T13:19:00.438Z,19.75
2017-03-28T13:20:10.919Z,19.87
2017-03-28T13:21:20.652Z,19.85
2017-03-28T13:22:29.888Z,19.79
2017-03-28T13:23:38.782Z,19.86
2017-03-28T13:24:47.747Z,19.89
2017-03-28T13:25:56.645Z,19.9
2017-03-28T13:27:05.861Z,19.83
2017-03-28T13:28:14.471Z,19.89
2017-03-28T13:29:23.680Z,19.93
2017-03-28T13:30:32.898Z,19.9
2017-03-28T13:31:41.483Z,19.92
2017-03-28T13:32:50.066Z,20
2017-03-28T13:33:59.280Z,19.98
2017-03-28T13:35:08.189Z,19.82
2017-03-28T13:36:16.774Z,19.85
2017-03-28T13:37:26.305Z,19.87
2017-03-28T13:38:35.198Z,19.95
2017-03-28T13:39:44.098Z,19.89
2017-03-28T13:40:53.306Z,19.89
2017-03-28T13:42:02.518Z,19.95
2017-03-28T13:43:11.421Z,19.87
2017-03-28T13:44:20.314Z,19.87
2017-03-28T13:45:29.220Z,20
2017-03-28T13:46:38.112Z,20.02
2017-03-28T13:47:47.320Z,19.93
2017-03-28T13:48:56.214Z,19.95
2017-03-28T13:50:05.424Z,20.01
2017-03-28T13:51:14.319Z,20.02
2017-03-28T13:52:22.896Z,20
2017-03-28T13:53:31.715Z,19.9
2017-03-28T13:54:41.644Z,20.07
2017-03-28T13:55:50.540Z,19.95
2017-03-28T13:56:59.728Z,20.07
2017-03-28T13:58:09.334Z,20.1
2017-03-28T13:59:18.547Z,19.97
2017-03-28T14:00:28.193Z,19.97
2017-03-28T14:01:37.744Z,20.02
2017-03-28T14:02:46.336Z,20.04
2017-03-28T14:03:55.228Z,20.07
2017-03-28T14:05:03.817Z,19.98
2017-03-28T14:06:13.040Z,20.02
2017-03-28T14:07:21.930Z,19.98
2017-03-28T14:08:31.139Z,20.01
2017-03-28T14:09:40.044Z,19.93
2017-03-28T14:10:49.299Z,20
2017-03-28T14:11:57.896Z,20.04
2017-03-28T14:13:06.797Z,20.07
2017-03-28T14:14:16.006Z,20.04
2017-03-28T14:15:24.939Z,20.08
2017-03-28T14:16:33.628Z,20.05
2017-03-28T14:17:42.523Z,20.07
2017-03-28T14:18:51.757Z,20.07
2017-03-28T14:20:00.648Z,20.05
2017-03-28T14:21:09.228Z,20.08
2017-03-28T14:22:18.136Z,20.02
2017-03-28T14:23:27.029Z,20
2017-03-28T14:24:35.606Z,20.12
2017-03-28T14:25:44.822Z,20.15
2017-03-28T14:26:53.712Z,20.12
2017-03-28T14:28:02.631Z,20.1
2017-03-28T14:29:11.215Z,20.12
2017-03-28T14:30:19.847Z,20.15
2017-03-28T14:31:29.877Z,20.16
2017-03-28T14:32:38.884Z,20.18
2017-03-28T14:33:47.780Z,20.16
2017-03-28T14:34:56.361Z,20.15
2017-03-28T14:36:05.637Z,20.15
2017-03-28T14:37:15.092Z,20.15
2017-03-28T14:38:24.445Z,20.15
2017-03-28T14:39:33.415Z,20.12
2017-03-28T14:40:42.318Z,20.12
2017-03-28T14:41:51.529Z,20.12
2017-03-28T14:43:01.088Z,20.2
2017-03-28T14:44:10.327Z,20.16
2017-03-28T14:45:18.915Z,20.15
2017-03-28T14:46:27.529Z,20.15
2017-03-28T14:47:36.139Z,20.16
2017-03-28T14:48:45.357Z,20.1
2017-03-28T14:49:54.256Z,20.2
2017-03-28T14:51:02.837Z,20.16
2017-03-28T14:52:12.368Z,20.2
2017-03-28T14:53:20.948Z,20.15
2017-03-28T14:54:29.845Z,20.12
2017-03-28T14:55:38.430Z,20.19
2017-03-28T14:56:47.576Z,20.11
2017-03-28T14:57:56.153Z,20.11
2017-03-28T14:59:05.045Z,20.08
2017-03-28T15:00:13.628Z,20.1
2017-03-28T15:01:22.522Z,20.07
2017-03-28T15:02:31.413Z,20.05
2017-03-28T15:03:39.996Z,20.05
2017-03-28T15:04:49.205Z,20.11
2017-03-28T15:05:57.791Z,20.1
2017-03-28T15:07:06.703Z,20.01